Time;durP1;ratioP1;P1;durP2;ratioP2;P2;SDS_P1;SDS_P2;PMS_P1;PMS_P2;Temp;Humidity;BMP_temperature;BMP_pressure;BME280_temperature;BME280_humidity;BME280_pressure;Samples;Min_cycle;Max_cycle;Signal;HPM_P1;HPM_P2
2022/03/06 00:01:05;;;;;;;10.18;7.30;;;2.60;99.40;;;;;;5026031;28;20615;-53
2022/03/06 00:03:31;;;;;;;7.68;4.82;;;2.60;99.40;;;;;;5027465;28;20036;-52
2022/03/06 00:06:00;;;;;;;10.00;5.65;;;2.60;99.50;;;;;;5033190;28;20386;-51
2022/03/06 00:08:26;;;;;;;8.98;5.50;;;2.60;99.40;;;;;;5029902;28;20032;-52
2022/03/06 00:10:52;;;;;;;8.20;5.47;;;2.60;99.60;;;;;;5024566;28;20033;-55
2022/03/06 00:13:17;;;;;;;13.00;5.97;;;2.60;99.50;;;;;;5029865;28;20545;-52
2022/03/06 00:15:43;;;;;;;10.45;5.55;;;2.50;99.40;;;;;;5026142;28;20397;-55
2022/03/06 00:18:09;;;;;;;14.43;6.75;;;2.60;99.60;;;;;;5026482;28;20041;-51
2022/03/06 00:20:35;;;;;;;11.63;5.05;;;2.60;99.50;;;;;;5026538;28;20078;-54
2022/03/06 00:23:02;;;;;;;7.22;4.65;;;2.60;99.30;;;;;;5025377;28;20034;-53
2022/03/06 00:25:27;;;;;;;11.18;5.75;;;2.50;99.30;;;;;;5026632;28;20133;-52
2022/03/06 00:27:53;;;;;;;10.40;5.35;;;2.50;99.20;;;;;;5028124;28;20120;-51
2022/03/06 00:30:18;;;;;;;9.75;5.43;;;2.50;99.30;;;;;;5028214;28;20025;-51
2022/03/06 00:32:44;;;;;;;9.65;6.10;;;2.50;99.40;;;;;;5028995;28;20028;-53
2022/03/06 00:35:09;;;;;;;8.15;5.32;;;2.40;99.40;;;;;;5036659;28;20164;-52
2022/03/06 00:37:35;;;;;;;10.88;5.28;;;2.40;99.50;;;;;;5026960;28;20128;-55
2022/03/06 00:40:02;;;;;;;13.00;7.22;;;2.40;99.50;;;;;;5034569;28;20035;-53
2022/03/06 00:42:28;;;;;;;8.32;5.22;;;2.40;99.60;;;;;;5027612;28;20022;-54
2022/03/06 00:44:54;;;;;;;7.47;5.03;;;2.40;99.50;;;;;;5027728;28;20083;-52
2022/03/06 00:47:19;;;;;;;6.85;4.75;;;2.40;99.60;;;;;;5025287;28;20041;-52
2022/03/06 00:49:45;;;;;;;14.60;7.72;;;2.40;99.50;;;;;;5043677;22;20054;-52
2022/03/06 00:52:12;;;;;;;9.55;6.05;;;2.40;99.50;;;;;;5029676;28;20029;-53
2022/03/06 00:54:37;;;;;;;7.95;5.00;;;2.30;99.50;;;;;;5025970;28;20091;-52
2022/03/06 00:57:03;;;;;;;6.65;5.75;;;2.30;99.60;;;;;;5027164;28;20033;-54
2022/03/06 00:59:33;;;;;;;10.60;6.07;;;2.30;99.60;;;;;;5028682;28;20035;-52
2022/03/06 01:01:59;;;;;;;7.90;5.40;;;2.30;99.70;;;;;;5023349;28;20029;-51
2022/03/06 01:04:25;;;;;;;11.30;5.60;;;2.30;99.60;;;;;;5024447;28;20052;-55
2022/03/06 01:06:51;;;;;;;9.88;5.82;;;2.30;99.60;;;;;;5024631;28;20053;-54
2022/03/06 01:09:17;;;;;;;9.18;5.40;;;2.20;99.60;;;;;;5028120;28;20033;-51
2022/03/06 01:11:42;;;;;;;10.93;6.05;;;2.20;99.70;;;;;;5032543;28;20029;-55
2022/03/06 01:14:08;;;;;;;9.25;5.22;;;2.30;99.80;;;;;;5034692;28;20048;-54
2022/03/06 01:16:33;;;;;;;10.55;6.90;;;2.30;99.70;;;;;;5033537;28;20033;-52
2022/03/06 01:18:59;;;;;;;13.48;6.68;;;2.30;99.90;;;;;;5034258;28;20116;-54
2022/03/06 01:21:24;;;;;;;13.10;7.38;;;2.30;99.90;;;;;;5031638;28;20437;-53
2022/03/06 01:23:50;;;;;;;8.90;4.80;;;2.20;99.90;;;;;;5025458;28;20045;-52
2022/03/06 01:26:17;;;;;;;11.20;5.80;;;2.20;99.90;;;;;;5027893;28;20079;-51
2022/03/06 01:28:43;;;;;;;8.73;5.75;;;2.20;99.90;;;;;;5028020;28;20134;-52
2022/03/06 01:31:08;;;;;;;8.20;6.20;;;2.20;99.90;;;;;;5031656;28;20022;-53
2022/03/06 01:33:34;;;;;;;8.25;5.63;;;2.20;99.90;;;;;;5026585;28;20036;-51
2022/03/06 01:36:00;;;;;;;8.57;5.85;;;2.20;99.90;;;;;;5026793;28;20033;-52
2022/03/06 01:38:25;;;;;;;8.50;5.13;;;2.30;99.90;;;;;;5026627;28;20090;-53
2022/03/06 01:40:51;;;;;;;8.23;6.00;;;2.20;99.90;;;;;;5025340;28;20032;-52
2022/03/06 01:43:16;;;;;;;8.80;5.82;;;2.20;99.90;;;;;;5025263;28;20080;-54
2022/03/06 01:45:42;;;;;;;10.50;6.60;;;2.30;99.90;;;;;;5025532;28;20037;-53
2022/03/06 01:48:09;;;;;;;8.77;5.75;;;2.30;99.90;;;;;;5026476;28;20132;-52
2022/03/06 01:50:36;;;;;;;9.60;6.05;;;2.40;99.90;;;;;;5033156;28;20081;-52
2022/03/06 01:53:05;;;;;;;8.95;5.68;;;2.30;99.90;;;;;;5027986;28;20021;-52
2022/03/06 01:55:31;;;;;;;9.63;5.88;;;2.30;99.90;;;;;;5026439;28;20029;-54
2022/03/06 01:58:00;;;;;;;8.40;4.82;;;2.30;99.90;;;;;;5026493;28;20127;-54
2022/03/06 02:00:29;;;;;;;7.93;5.65;;;2.30;99.90;;;;;;5030763;28;20043;-54
2022/03/06 02:02:55;;;;;;;9.60;6.22;;;2.30;99.90;;;;;;5025067;28;20033;-51
2022/03/06 02:05:20;;;;;;;;;;;2.20;99.90;;;;;;5024851;28;20033;-51
2022/03/06 02:07:47;;;;;;;10.30;5.85;;;2.10;99.90;;;;;;5028183;28;19979;-52
2022/03/06 02:10:14;;;;;;;6.38;5.28;;;2.10;99.90;;;;;;5027327;28;20490;-52
2022/03/06 02:12:40;;;;;;;8.95;5.68;;;2.10;99.90;;;;;;5017018;28;20087;-52
2022/03/06 02:15:08;;;;;;;7.78;5.57;;;2.10;99.90;;;;;;5033463;28;20068;-54
2022/03/06 02:17:37;;;;;;;9.30;6.95;;;2.10;99.90;;;;;;5023762;28;20043;-53
2022/03/06 02:20:06;;;;;;;9.70;5.70;;;2.10;99.90;;;;;;5026747;28;20040;-54
2022/03/06 02:22:34;;;;;;;8.27;5.28;;;2.10;99.90;;;;;;5025441;28;20049;-53
2022/03/06 02:25:09;;;;;;;6.90;5.15;;;2.10;99.90;;;;;;5024885;28;20040;-54
2022/03/06 02:27:34;;;;;;;8.60;5.20;;;2.10;99.90;;;;;;5024574;28;20072;-54
2022/03/06 02:30:02;;;;;;;8.15;5.85;;;2.00;99.90;;;;;;5031453;28;20061;-52
2022/03/06 02:32:29;;;;;;;9.90;5.88;;;1.90;99.90;;;;;;5029512;28;20487;-52
2022/03/06 02:34:54;;;;;;;5.72;5.15;;;1.90;99.90;;;;;;5031712;28;20032;-51
2022/03/06 02:37:21;;;;;;;10.95;5.63;;;1.90;99.90;;;;;;5038406;28;20041;-52
2022/03/06 02:39:47;;;;;;;8.82;5.95;;;1.90;99.90;;;;;;5039823;28;20394;-51
2022/03/06 02:42:34;;;;;;;9.68;5.97;;;1.90;99.90;;;;;;5033144;28;20040;-51
2022/03/06 02:45:09;;;;;;;8.52;5.30;;;1.90;99.90;;;;;;5038413;28;20025;-53
2022/03/06 02:47:35;;;;;;;9.60;5.57;;;1.80;99.90;;;;;;5029523;28;20052;-50
2022/03/06 02:50:02;;;;;;;10.35;7.20;;;1.80;99.90;;;;;;5030753;28;20476;-55
2022/03/06 02:52:29;;;;;;;8.75;5.03;;;1.80;99.90;;;;;;5028852;28;20045;-52
2022/03/06 02:54:54;;;;;;;10.98;5.30;;;1.80;99.90;;;;;;5029448;28;20394;-54
2022/03/06 02:57:20;;;;;;;7.07;4.75;;;1.70;99.90;;;;;;5029019;28;20497;-52
2022/03/06 02:59:45;;;;;;;8.95;4.43;;;1.70;99.90;;;;;;5033821;28;20501;-54
2022/03/06 03:02:11;;;;;;;9.95;4.88;;;1.60;99.90;;;;;;5029757;28;20109;-54
2022/03/06 03:04:38;;;;;;;7.63;5.00;;;1.60;99.90;;;;;;5028666;28;20036;-54
2022/03/06 03:07:05;;;;;;;10.52;6.88;;;1.60;99.90;;;;;;5031160;28;20120;-55
2022/03/06 03:09:31;;;;;;;7.50;4.65;;;1.60;99.90;;;;;;5028379;28;20112;-53
2022/03/06 03:11:56;;;;;;;;;;;1.60;99.90;;;;;;5029796;28;20029;-54
2022/03/06 03:14:22;;;;;;;9.57;6.53;;;1.60;99.90;;;;;;5035475;28;19918;-52
2022/03/06 03:16:48;;;;;;;10.50;7.05;;;1.70;99.90;;;;;;5030529;28;20150;-53
2022/03/06 03:19:14;;;;;;;13.40;6.75;;;1.70;99.90;;;;;;5032939;28;20052;-54
2022/03/06 03:21:40;;;;;;;15.30;9.27;;;1.80;99.90;;;;;;5028170;28;20417;-55
2022/03/06 03:24:06;;;;;;;5.70;4.20;;;1.80;99.90;;;;;;5028898;28;20029;-52
2022/03/06 03:26:32;;;;;;;;;;;1.80;99.90;;;;;;5034726;28;20483;-51
2022/03/06 03:28:58;;;;;;;7.85;4.97;;;1.80;99.90;;;;;;5031343;28;20007;-51
2022/03/06 03:31:23;;;;;;;;;;;1.80;99.90;;;;;;5028199;28;20068;-55
2022/03/06 03:33:49;;;;;;;10.25;5.45;;;1.70;99.90;;;;;;5028374;28;20009;-55
2022/03/06 03:36:15;;;;;;;9.82;4.90;;;1.80;99.90;;;;;;5027810;28;20029;-55
2022/03/06 03:38:40;;;;;;;10.35;5.72;;;1.80;99.90;;;;;;5027114;28;20041;-53
2022/03/06 03:41:07;;;;;;;15.10;7.97;;;1.70;99.90;;;;;;5028850;28;20030;-55
2022/03/06 03:43:33;;;;;;;15.07;8.57;;;1.70;99.90;;;;;;5026324;28;20037;-54
2022/03/06 03:45:58;;;;;;;12.70;8.07;;;1.70;99.90;;;;;;5027713;28;20043;-54
2022/03/06 03:48:28;;;;;;;7.00;4.85;;;1.70;99.90;;;;;;5031356;28;20037;-52
2022/03/06 03:50:55;;;;;;;13.25;7.72;;;1.60;99.90;;;;;;5028593;28;20026;-55
2022/03/06 03:53:20;;;;;;;;;;;1.70;99.90;;;;;;5027194;28;20030;-53
2022/03/06 03:55:46;;;;;;;13.57;7.25;;;1.80;99.90;;;;;;5035367;28;19916;-55
2022/03/06 03:58:12;;;;;;;12.40;6.38;;;1.70;99.90;;;;;;5033978;28;20095;-54
2022/03/06 04:00:38;;;;;;;11.25;6.32;;;1.70;99.90;;;;;;5032011;28;20049;-54
2022/03/06 04:03:04;;;;;;;;;;;1.60;99.90;;;;;;5031472;28;20109;-54
2022/03/06 04:05:29;;;;;;;8.13;4.38;;;1.60;99.90;;;;;;5037425;28;19920;-53
2022/03/06 04:07:55;;;;;;;7.35;5.35;;;1.60;99.90;;;;;;5036603;28;20029;-54
2022/03/06 04:10:21;;;;;;;7.30;4.68;;;1.60;99.90;;;;;;5036582;28;20056;-54
2022/03/06 04:12:46;;;;;;;6.70;4.63;;;1.60;99.90;;;;;;5028308;28;20266;-54
2022/03/06 04:15:12;;;;;;;10.95;5.20;;;1.50;99.90;;;;;;5027958;28;20513;-52
2022/03/06 04:17:37;;;;;;;7.53;4.82;;;1.40;99.90;;;;;;5031808;28;20033;-54
2022/03/06 04:20:04;;;;;;;13.18;6.28;;;1.30;99.90;;;;;;5026390;28;20044;-52
2022/03/06 04:22:29;;;;;;;6.72;4.35;;;1.30;99.90;;;;;;5027537;28;20025;-53
2022/03/06 04:24:55;;;;;;;10.27;5.85;;;1.30;99.90;;;;;;5028573;28;20052;-54
2022/03/06 04:27:21;;;;;;;5.78;4.35;;;1.40;99.90;;;;;;5027399;28;20056;-55
2022/03/06 04:29:46;;;;;;;10.68;4.90;;;1.30;99.90;;;;;;5030601;28;20160;-54
2022/03/06 04:32:12;;;;;;;8.48;4.15;;;1.30;99.90;;;;;;5033421;28;20029;-54
2022/03/06 04:34:38;;;;;;;10.07;6.43;;;1.20;99.90;;;;;;5033646;28;20178;-52
2022/03/06 04:37:04;;;;;;;;;;;1.20;99.90;;;;;;5026194;28;20033;-54
2022/03/06 04:39:29;;;;;;;7.25;5.38;;;1.20;99.90;;;;;;5027216;28;19953;-51
2022/03/06 04:41:55;;;;;;;7.90;4.13;;;1.20;99.90;;;;;;5027288;28;20049;-52
2022/03/06 04:44:20;;;;;;;7.85;5.20;;;1.20;99.90;;;;;;5029841;28;20029;-53
2022/03/06 04:46:46;;;;;;;9.43;6.10;;;1.20;99.90;;;;;;5026413;28;20712;-51
2022/03/06 04:49:12;;;;;;;;;;;1.30;99.90;;;;;;5029912;28;20395;-51
2022/03/06 04:51:38;;;;;;;8.98;6.28;;;1.30;99.90;;;;;;5026286;28;19920;-51
2022/03/06 04:54:04;;;;;;;12.05;5.85;;;1.30;99.90;;;;;;5026783;28;20026;-54
2022/03/06 04:56:29;;;;;;;9.02;5.30;;;1.20;99.90;;;;;;5027279;28;20133;-54
2022/03/06 04:58:55;;;;;;;10.70;5.18;;;1.30;99.90;;;;;;5026338;28;20052;-51
2022/03/06 05:01:21;;;;;;;4.78;4.30;;;1.30;99.90;;;;;;5026165;28;20124;-54
2022/03/06 05:03:46;;;;;;;5.85;4.07;;;1.20;99.90;;;;;;5030750;28;20486;-51
2022/03/06 05:06:12;;;;;;;6.47;5.00;;;1.20;99.90;;;;;;5027261;28;20119;-55
2022/03/06 05:08:37;;;;;;;9.07;5.25;;;1.20;99.90;;;;;;5027064;28;20434;-51
2022/03/06 05:11:03;;;;;;;5.63;3.70;;;1.10;99.90;;;;;;5026472;28;20029;-51
2022/03/06 05:13:28;;;;;;;7.68;3.17;;;1.20;99.90;;;;;;5030131;28;20021;-54
2022/03/06 05:15:54;;;;;;;6.40;4.10;;;1.20;99.90;;;;;;5034488;28;20036;-52
2022/03/06 05:18:20;;;;;;;4.32;3.78;;;1.10;99.90;;;;;;5032019;28;20056;-53
2022/03/06 05:20:45;;;;;;;4.20;3.35;;;1.00;99.90;;;;;;5034558;28;20064;-53
2022/03/06 05:23:11;;;;;;;5.82;3.90;;;1.00;99.90;;;;;;5034911;28;20051;-54
2022/03/06 05:25:36;;;;;;;4.85;3.15;;;1.00;99.90;;;;;;5031017;28;20418;-51
2022/03/06 05:28:02;;;;;;;6.95;4.28;;;0.90;99.90;;;;;;5028687;28;20025;-52
2022/03/06 05:30:30;;;;;;;9.25;4.50;;;1.00;99.90;;;;;;5032809;28;20029;-51
2022/03/06 05:32:56;;;;;;;5.07;4.20;;;1.00;99.90;;;;;;5035485;28;20394;-54
2022/03/06 05:35:21;;;;;;;5.43;3.17;;;1.00;99.90;;;;;;5036255;28;20029;-52
2022/03/06 05:37:47;;;;;;;5.03;3.33;;;1.00;99.90;;;;;;5031978;28;20047;-51
2022/03/06 05:40:13;;;;;;;7.20;3.38;;;1.10;99.90;;;;;;5035151;28;20444;-51
2022/03/06 05:42:38;;;;;;;4.03;2.88;;;1.10;99.90;;;;;;5028609;28;20076;-53
2022/03/06 05:45:04;;;;;;;5.22;2.95;;;1.00;99.90;;;;;;5027526;28;20071;-53
2022/03/06 05:47:30;;;;;;;4.57;3.22;;;1.10;99.90;;;;;;5025527;28;20017;-52
2022/03/06 05:49:55;;;;;;;6.70;3.92;;;1.10;99.90;;;;;;5027137;28;20040;-52
2022/03/06 05:52:21;;;;;;;6.95;3.45;;;1.10;99.90;;;;;;5026000;28;20413;-54
2022/03/06 05:54:46;;;;;;;3.20;2.15;;;1.10;99.90;;;;;;5026440;28;20033;-51
2022/03/06 05:57:12;;;;;;;5.70;2.58;;;1.10;99.90;;;;;;5026248;28;20087;-52
2022/03/06 05:59:37;;;;;;;4.47;2.63;;;1.00;99.90;;;;;;5030508;28;20041;-53
2022/03/06 06:02:03;;;;;;;7.15;3.50;;;0.90;99.90;;;;;;5027780;28;20116;-54
2022/03/06 06:04:29;;;;;;;4.55;3.03;;;1.00;99.90;;;;;;5030901;28;20316;-51
2022/03/06 06:06:54;;;;;;;4.30;2.72;;;1.00;99.90;;;;;;5024977;28;20099;-53
2022/03/06 06:09:20;;;;;;;4.72;2.30;;;1.00;99.90;;;;;;5035523;28;20033;-53
2022/03/06 06:11:45;;;;;;;3.72;1.90;;;0.90;99.90;;;;;;5031792;28;20796;-51
2022/03/06 06:14:11;;;;;;;7.60;3.38;;;0.90;99.90;;;;;;5031612;28;20607;-55
2022/03/06 06:16:37;;;;;;;4.95;3.20;;;0.90;99.90;;;;;;5031291;28;20041;-53
2022/03/06 06:19:04;;;;;;;5.93;3.22;;;0.90;99.90;;;;;;5030559;28;20561;-52
2022/03/06 06:21:29;;;;;;;5.65;2.78;;;0.90;99.90;;;;;;5031212;28;20025;-51
2022/03/06 06:23:55;;;;;;;10.48;3.80;;;1.00;99.90;;;;;;5032846;28;20017;-54
2022/03/06 06:26:20;;;;;;;7.50;3.17;;;1.00;99.90;;;;;;5032166;28;20206;-52
2022/03/06 06:28:48;;;;;;;5.93;2.80;;;1.00;99.90;;;;;;5041179;28;20032;-51
2022/03/06 06:31:13;;;;;;;5.82;2.55;;;0.90;99.90;;;;;;5040417;28;21517;-54
2022/03/06 06:33:39;;;;;;;7.80;3.35;;;1.00;99.90;;;;;;5046394;28;20033;-51
2022/03/06 06:36:05;;;;;;;6.10;2.35;;;1.10;99.90;;;;;;5041390;28;20017;-51
2022/03/06 06:38:30;;;;;;;4.38;2.65;;;1.00;99.80;;;;;;5031403;28;20033;-55
2022/03/06 06:40:56;;;;;;;14.18;4.03;;;1.00;99.90;;;;;;5033815;28;20104;-54
2022/03/06 06:43:22;;;;;;;5.03;3.40;;;1.00;99.90;;;;;;5032622;28;20952;-54
2022/03/06 06:45:47;;;;;;;6.82;3.03;;;1.00;99.90;;;;;;5038204;28;20121;-53
2022/03/06 06:48:13;;;;;;;5.28;1.98;;;1.00;99.90;;;;;;5034389;28;20025;-54
2022/03/06 06:50:39;;;;;;;;;;;1.10;99.90;;;;;;5038706;28;20478;-54
2022/03/06 06:53:04;;;;;;;10.30;4.55;;;1.20;99.90;;;;;;5026397;28;19940;-51
2022/03/06 06:55:30;;;;;;;5.93;2.72;;;1.30;99.90;;;;;;5031841;28;20016;-52
2022/03/06 06:57:55;;;;;;;6.63;3.25;;;1.60;99.90;;;;;;5035726;28;20087;-54
2022/03/06 07:00:21;;;;;;;6.65;3.30;;;1.60;99.60;;;;;;5033065;28;20598;-52
2022/03/06 07:02:47;;;;;;;8.98;5.43;;;1.60;99.30;;;;;;5032555;28;20610;-52
2022/03/06 07:05:13;;;;;;;7.82;3.83;;;1.50;99.60;;;;;;5032314;28;20029;-55
2022/03/06 07:07:39;;;;;;;4.72;2.15;;;1.50;99.60;;;;;;5033976;28;20049;-52
2022/03/06 07:10:05;;;;;;;10.25;5.80;;;1.50;99.30;;;;;;5033761;28;20052;-52
2022/03/06 07:12:39;;;;;;;;;;;1.40;99.50;;;;;;5031120;28;20033;-52
2022/03/06 07:15:05;;;;;;;5.55;1.95;;;1.40;99.50;;;;;;5034951;28;20317;-54
2022/03/06 07:17:31;;;;;;;6.93;4.03;;;1.40;99.30;;;;;;5036150;28;20020;-51
2022/03/06 07:19:56;;;;;;;5.07;2.35;;;1.40;99.50;;;;;;5033924;28;20048;-52
2022/03/06 07:22:22;;;;;;;4.30;2.75;;;1.40;99.10;;;;;;5027778;28;20040;-53
2022/03/06 07:24:47;;;;;;;3.30;2.08;;;1.50;99.40;;;;;;5028872;28;20033;-52
2022/03/06 07:27:13;;;;;;;2.80;1.55;;;1.50;98.90;;;;;;5033550;28;20021;-51
2022/03/06 07:29:38;;;;;;;2.97;1.88;;;1.50;98.40;;;;;;5028554;28;20049;-53
2022/03/06 07:32:04;;;;;;;3.58;2.03;;;1.50;98.80;;;;;;5034127;28;20707;-51
2022/03/06 07:34:29;;;;;;;2.70;1.90;;;1.60;98.90;;;;;;5031712;28;20474;-54
2022/03/06 07:36:55;;;;;;;5.25;2.28;;;1.60;98.60;;;;;;5028654;28;20065;-51
2022/03/06 07:39:20;;;;;;;4.85;3.60;;;1.70;98.70;;;;;;5028347;28;20510;-51
2022/03/06 07:41:46;;;;;;;3.83;1.52;;;1.80;98.90;;;;;;5028597;28;20029;-51
2022/03/06 07:44:11;;;;;;;2.83;1.30;;;1.80;98.50;;;;;;5030135;28;20033;-54
2022/03/06 07:46:37;;;;;;;2.83;1.60;;;1.90;98.20;;;;;;5034311;28;20041;-53
2022/03/06 07:49:02;;;;;;;1.88;1.30;;;1.90;98.20;;;;;;5036241;28;20033;-53
2022/03/06 07:51:28;;;;;;;3.38;1.38;;;1.90;98.20;;;;;;5027096;28;20021;-52
2022/03/06 07:53:53;;;;;;;4.20;2.25;;;1.80;98.30;;;;;;5034646;28;20032;-51
2022/03/06 07:56:19;;;;;;;7.47;1.90;;;1.80;98.20;;;;;;5027541;28;20727;-55
2022/03/06 07:58:44;;;;;;;4.07;1.48;;;1.80;98.30;;;;;;5032843;28;20028;-51
2022/03/06 08:01:10;;;;;;;6.25;1.92;;;1.80;98.20;;;;;;5027382;28;20025;-51
2022/03/06 08:03:35;;;;;;;3.35;1.92;;;1.70;98.50;;;;;;5028616;28;20057;-53
2022/03/06 08:06:01;;;;;;;3.28;1.58;;;1.70;98.60;;;;;;5028002;28;20037;-52
2022/03/06 08:08:26;;;;;;;4.07;2.38;;;1.80;98.60;;;;;;5035869;28;20034;-53
2022/03/06 08:10:52;;;;;;;3.67;1.45;;;1.90;98.50;;;;;;5028511;28;20022;-54
2022/03/06 08:13:17;;;;;;;3.10;1.15;;;2.00;98.60;;;;;;5028356;28;20076;-52
2022/03/06 08:15:43;;;;;;;4.30;1.50;;;2.10;98.10;;;;;;5032671;28;20512;-55
2022/03/06 08:18:08;;;;;;;2.20;1.15;;;2.10;98.40;;;;;;5029402;28;20087;-54
2022/03/06 08:20:34;;;;;;;3.67;2.00;;;2.00;98.20;;;;;;5026971;28;20025;-51
2022/03/06 08:23:01;;;;;;;3.50;1.98;;;2.00;98.30;;;;;;5028849;28;20292;-51
2022/03/06 08:25:26;;;;;;;2.22;1.55;;;2.00;98.20;;;;;;5033442;28;20025;-51
2022/03/06 08:27:52;;;;;;;3.22;2.00;;;1.90;98.40;;;;;;5036266;28;20404;-52
2022/03/06 08:30:17;;;;;;;3.35;1.65;;;1.90;98.40;;;;;;5027961;28;20022;-52
2022/03/06 08:32:43;;;;;;;4.97;2.03;;;2.00;98.20;;;;;;5026493;28;20124;-51
2022/03/06 08:35:09;;;;;;;4.00;2.20;;;2.10;98.30;;;;;;5029089;28;20040;-52
2022/03/06 08:37:35;;;;;;;4.43;1.77;;;2.20;97.80;;;;;;5027261;28;20029;-51
2022/03/06 08:40:00;;;;;;;1.80;1.25;;;2.20;97.50;;;;;;5027453;28;20041;-52
2022/03/06 08:42:26;;;;;;;5.18;1.80;;;2.10;97.60;;;;;;5026304;28;20036;-52
2022/03/06 08:44:51;;;;;;;4.38;1.90;;;2.10;97.80;;;;;;5007727;28;20056;-52
2022/03/06 08:47:17;;;;;;;2.13;1.38;;;2.20;97.60;;;;;;5008769;28;20054;-53
2022/03/06 08:49:43;;;;;;;3.35;1.25;;;2.10;97.70;;;;;;5011573;28;20038;-53
2022/03/06 08:52:10;;;;;;;3.15;1.80;;;2.10;97.50;;;;;;5007650;28;20030;-54
2022/03/06 08:54:36;;;;;;;3.58;1.70;;;2.10;97.60;;;;;;5008385;28;20029;-52
2022/03/06 08:57:02;;;;;;;3.53;1.33;;;2.20;97.50;;;;;;5008861;28;20080;-54
2022/03/06 08:59:27;;;;;;;5.00;1.50;;;2.20;97.60;;;;;;5009115;28;20034;-53
2022/03/06 09:01:55;;;;;;;5.22;2.60;;;2.20;97.30;;;;;;5008893;28;20026;-54
2022/03/06 09:04:23;;;;;;;7.88;2.47;;;2.20;97.30;;;;;;5009415;28;20046;-53
2022/03/06 09:06:49;;;;;;;2.65;2.17;;;2.30;97.10;;;;;;5016262;28;20153;-53
2022/03/06 09:09:15;;;;;;;2.53;1.27;;;2.20;97.20;;;;;;5010642;28;20030;-53
2022/03/06 09:11:40;;;;;;;5.22;2.03;;;2.30;97.10;;;;;;5006579;28;20426;-54
2022/03/06 09:14:07;;;;;;;7.00;1.83;;;2.20;97.10;;;;;;5008110;28;20041;-51
2022/03/06 09:16:32;;;;;;;5.72;3.78;;;2.20;97.10;;;;;;5015898;28;20518;-54
2022/03/06 09:18:58;;;;;;;4.13;2.10;;;2.30;97.40;;;;;;5008435;28;20120;-51
2022/03/06 09:21:23;;;;;;;2.80;2.35;;;2.40;97.20;;;;;;5008926;28;20128;-51
2022/03/06 09:23:49;;;;;;;3.30;2.10;;;2.40;97.20;;;;;;5009402;28;20021;-52
2022/03/06 09:26:15;;;;;;;8.07;2.67;;;2.70;97.50;;;;;;5011576;28;20537;-52
2022/03/06 09:28:40;;;;;;;4.07;2.15;;;2.80;96.50;;;;;;5010676;28;20425;-51
2022/03/06 09:31:06;;;;;;;5.15;2.95;;;2.80;95.90;;;;;;5009368;28;20037;-52
2022/03/06 09:33:31;;;;;;;2.05;1.25;;;2.80;96.00;;;;;;5010608;28;20029;-50
2022/03/06 09:35:57;;;;;;;2.85;2.65;;;2.80;94.70;;;;;;5009593;28;20042;-51
2022/03/06 09:38:22;;;;;;;3.90;1.50;;;2.70;95.10;;;;;;5011516;28;20056;-52
2022/03/06 09:40:49;;;;;;;2.78;2.55;;;2.70;94.40;;;;;;5014560;28;20482;-51
2022/03/06 09:43:17;;;;;;;3.38;1.30;;;2.70;95.30;;;;;;5009720;28;20044;-51
2022/03/06 09:45:46;;;;;;;3.05;2.05;;;2.70;94.80;;;;;;5016727;28;20391;-53
2022/03/06 09:48:14;;;;;;;2.28;1.63;;;2.70;94.80;;;;;;5016115;28;20067;-53
2022/03/06 09:50:39;;;;;;;3.80;1.95;;;2.70;94.90;;;;;;5021317;28;20022;-50
2022/03/06 09:53:06;;;;;;;2.47;1.75;;;2.70;95.10;;;;;;5012863;28;20034;-51
2022/03/06 09:55:32;;;;;;;3.55;2.00;;;2.80;95.10;;;;;;5018095;28;20041;-53
2022/03/06 09:57:58;;;;;;;7.50;1.88;;;2.80;94.80;;;;;;5010864;28;20042;-55
2022/03/06 10:00:24;;;;;;;7.28;2.33;;;2.70;94.90;;;;;;5013315;28;20018;-53
2022/03/06 10:02:58;;;;;;;4.20;1.83;;;2.80;94.80;;;;;;5008094;28;20041;-54
2022/03/06 10:05:38;;;;;;;2.97;2.08;;;2.80;94.80;;;;;;5019226;28;20034;-53
2022/03/06 10:08:27;;;;;;;4.53;1.67;;;2.80;94.70;;;;;;5011423;28;20489;-53
2022/03/06 10:11:02;;;;;;;6.50;1.02;;;2.80;95.20;;;;;;5016436;28;20035;-53
2022/03/06 10:13:33;;;;;;;4.55;1.73;;;3.00;95.00;;;;;;5015430;28;20072;-53
2022/03/06 10:16:24;;;;;;;5.72;1.20;;;3.00;94.70;;;;;;5018578;28;20072;-51
2022/03/06 10:18:52;;;;;;;3.78;1.60;;;3.10;94.50;;;;;;5011194;28;20049;-50
2022/03/06 10:21:28;;;;;;;4.13;1.40;;;3.20;94.50;;;;;;5011925;28;20030;-51
2022/03/06 10:23:56;;;;;;;3.03;1.33;;;3.20;93.40;;;;;;5011358;28;20526;-52
2022/03/06 10:26:27;;;;;;;2.95;1.40;;;3.20;92.20;;;;;;5018816;28;20402;-53
2022/03/06 10:29:02;;;;;;;3.17;1.92;;;3.20;92.60;;;;;;5007911;28;20111;-51
2022/03/06 10:31:31;;;;;;;3.67;1.65;;;3.20;91.60;;;;;;5013456;28;20027;-50
2022/03/06 10:34:08;;;;;;;3.92;1.90;;;3.30;90.50;;;;;;5008998;28;20030;-54
2022/03/06 10:36:34;;;;;;;2.38;1.58;;;3.40;90.50;;;;;;5013921;28;20403;-51
2022/03/06 10:39:00;;;;;;;3.83;1.38;;;3.50;90.50;;;;;;5009120;28;20022;-51
2022/03/06 10:41:38;;;;;;;3.42;1.33;;;3.60;88.10;;;;;;5007220;28;20033;-53
2022/03/06 10:44:05;;;;;;;6.90;1.83;;;3.60;88.30;;;;;;5014099;28;20040;-51
2022/03/06 10:46:33;;;;;;;4.55;1.98;;;3.60;87.50;;;;;;5006387;28;20087;-51
2022/03/06 10:49:02;;;;;;;6.18;3.00;;;3.60;89.00;;;;;;5010726;28;20034;-52
2022/03/06 10:51:29;;;;;;;4.60;1.45;;;3.70;90.10;;;;;;5007410;28;20026;-50
2022/03/06 10:53:57;;;;;;;3.08;1.42;;;3.70;87.20;;;;;;5017653;28;20025;-51
2022/03/06 10:56:24;;;;;;;1.52;1.40;;;3.60;88.10;;;;;;5014421;28;20170;-53
2022/03/06 10:58:50;;;;;;;1.73;1.20;;;3.40;87.70;;;;;;5012308;28;20160;-51
2022/03/06 11:01:16;;;;;;;3.58;1.00;;;3.30;89.00;;;;;;5012856;28;20124;-51
2022/03/06 11:03:42;;;;;;;2.22;1.27;;;3.20;88.00;;;;;;5008880;28;20570;-53
2022/03/06 11:06:09;;;;;;;;;;;3.10;88.00;;;;;;5011816;28;20037;-50
2022/03/06 11:08:36;;;;;;;25.35;12.07;;;3.10;88.90;;;;;;5010139;28;19955;-52
2022/03/06 11:11:05;;;;;;;4.13;2.58;;;3.00;89.70;;;;;;5011221;28;20081;-57
2022/03/06 11:13:31;;;;;;;12.65;5.55;;;3.10;88.70;;;;;;5009827;28;20072;-52
2022/03/06 11:15:58;;;;;;;6.90;2.63;;;3.10;89.10;;;;;;5009827;28;20511;-52
2022/03/06 11:18:25;;;;;;;11.25;5.82;;;3.10;88.50;;;;;;5010632;28;20533;-53
2022/03/06 11:20:52;;;;;;;4.40;2.03;;;3.10;89.90;;;;;;5013997;28;20053;-51
2022/03/06 11:23:41;;;;;;;2.58;1.67;;;3.20;89.00;;;;;;5009077;28;20029;-53
2022/03/06 11:26:17;;;;;;;3.13;1.80;;;3.20;88.60;;;;;;5016338;28;20026;-52
2022/03/06 11:29:22;;;;;;;2.63;1.35;;;3.20;88.70;;;;;;5015962;28;20034;-50
2022/03/06 11:31:52;;;;;;;2.58;1.50;;;3.20;88.50;;;;;;5014659;28;20018;-52
2022/03/06 11:34:39;;;;;;;3.40;3.00;;;3.20;87.80;;;;;;5010085;28;20111;-51
2022/03/06 11:37:11;;;;;;;3.60;2.25;;;3.00;88.00;;;;;;5012256;28;20109;-53
2022/03/06 11:39:36;;;;;;;4.82;3.70;;;3.00;87.70;;;;;;5009446;28;20149;-52
2022/03/06 11:42:07;;;;;;;2.97;1.75;;;3.00;87.20;;;;;;5011469;28;20526;-53
2022/03/06 11:44:33;;;;;;;3.10;1.38;;;3.00;86.80;;;;;;5009871;28;20537;-51
2022/03/06 11:46:59;;;;;;;3.70;1.85;;;3.10;87.00;;;;;;5009928;28;20095;-52
2022/03/06 11:49:34;;;;;;;1.98;1.70;;;3.00;86.90;;;;;;5008652;28;20533;-53
2022/03/06 11:52:00;;;;;;;11.80;5.10;;;3.00;87.10;;;;;;5012734;28;20491;-62
2022/03/06 11:54:41;;;;;;;20.70;11.25;;;3.00;88.10;;;;;;5009583;28;20117;-51
2022/03/06 11:57:07;;;;;;;26.60;12.13;;;2.90;88.70;;;;;;5016356;28;20029;-52
2022/03/06 11:59:34;;;;;;;17.58;7.43;;;2.80;87.60;;;;;;5017471;28;20397;-52
2022/03/06 12:02:07;;;;;;;5.15;2.83;;;2.70;90.00;;;;;;5013775;28;20113;-52
2022/03/06 12:04:37;;;;;;;4.70;3.50;;;2.70;89.50;;;;;;5011604;28;20090;-51
2022/03/06 12:07:08;;;;;;;26.70;12.50;;;2.60;90.20;;;;;;5016972;28;20037;-52
2022/03/06 12:09:37;;;;;;;52.35;22.52;;;2.50;90.30;;;;;;5016257;28;20030;-53
2022/03/06 12:12:17;;;;;;;58.22;24.77;;;2.50;90.40;;;;;;5016837;28;20113;-51
2022/03/06 12:14:51;;;;;;;15.90;7.95;;;2.50;90.20;;;;;;5010954;28;20048;-50
2022/03/06 12:17:20;;;;;;;12.88;6.50;;;2.60;89.40;;;;;;5009320;28;20057;-51
2022/03/06 12:19:46;;;;;;;6.63;3.83;;;2.60;89.20;;;;;;5014886;28;20032;-51
2022/03/06 12:22:21;;;;;;;20.50;9.35;;;2.60;88.20;;;;;;5011263;28;20101;-50
2022/03/06 12:25:07;;;;;;;3.20;2.10;;;2.60;88.30;;;;;;5016492;28;20033;-54
2022/03/06 12:27:34;;;;;;;3.67;2.00;;;2.50;87.90;;;;;;5012255;28;20479;-52
2022/03/06 12:30:18;;;;;;;5.47;2.78;;;2.50;88.30;;;;;;5010191;28;20052;-53
2022/03/06 12:32:44;;;;;;;100.75;43.17;;;2.50;89.00;;;;;;5011605;28;20026;-51
2022/03/06 12:35:14;;;;;;;42.17;18.80;;;2.60;89.50;;;;;;5010039;28;20026;-54
2022/03/06 12:38:00;;;;;;;35.75;17.30;;;2.50;89.60;;;;;;5016723;28;20439;-51
2022/03/06 12:40:28;;;;;;;5.40;2.80;;;2.50;90.10;;;;;;5010606;28;20060;-53
2022/03/06 12:43:04;;;;;;;2.72;1.98;;;2.50;90.20;;;;;;5009334;28;20541;-51
2022/03/06 12:45:30;;;;;;;9.70;4.70;;;2.50;90.10;;;;;;5016068;28;20037;-51
2022/03/06 12:47:56;;;;;;;10.30;5.38;;;2.50;89.80;;;;;;5029943;22;20066;-52
2022/03/06 12:50:24;;;;;;;4.40;2.60;;;2.50;90.00;;;;;;5059015;22;20110;-51
2022/03/06 12:52:53;;;;;;;22.33;11.77;;;2.50;89.80;;;;;;5046462;28;20061;-59
2022/03/06 12:55:20;;;;;;;16.25;8.85;;;2.50;89.60;;;;;;5045810;28;20064;-57
2022/03/06 12:57:53;;;;;;;17.48;8.27;;;2.50;90.20;;;;;;5046409;28;20029;-55